sensor_id;sensor_type;location;lat;lon;timestamp;temperature;humidity
18207;DHT22;9229;52.354;20.886;2023-10-09T00:08:54;2.70;99.90
18207;DHT22;9229;52.354;20.886;2023-10-09T00:14:00;2.60;99.90
18207;DHT22;9229;52.354;20.886;2023-10-09T00:19:08;2.50;99.90
18207;DHT22;9229;52.354;20.886;2023-10-09T00:24:19;2.80;99.90
18207;DHT22;9229;52.354;20.886;2023-10-09T00:29:25;2.50;99.90
18207;DHT22;9229;52.354;20.886;2023-10-09T00:34:35;2.40;99.90
18207;DHT22;9229;52.354;20.886;2023-10-09T00:39:43;2.40;99.90
18207;DHT22;9229;52.354;20.886;2023-10-09T00:44:50;2.40;99.90
18207;DHT22;9229;52.354;20.886;2023-10-09T00:49:58;2.40;99.90
18207;DHT22;9229;52.354;20.886;2023-10-09T00:55:03;2.40;99.90
18207;DHT22;9229;52.354;20.886;2023-10-09T01:00:16;2.40;99.90
18207;DHT22;9229;52.354;20.886;2023-10-09T01:05:33;2.30;99.90
18207;DHT22;9229;52.354;20.886;2023-10-09T01:10:47;2.30;99.90
18207;DHT22;9229;52.354;20.886;2023-10-09T01:15:54;2.30;99.90
18207;DHT22;9229;52.354;20.886;2023-10-09T01:20:58;2.40;99.90
18207;DHT22;9229;52.354;20.886;2023-10-09T01:26:06;2.40;99.90
18207;DHT22;9229;52.354;20.886;2023-10-09T01:31:08;2.40;99.90
18207;DHT22;9229;52.354;20.886;2023-10-09T01:36:18;2.40;99.90
18207;DHT22;9229;52.354;20.886;2023-10-09T01:41:33;2.40;99.90
18207;DHT22;9229;52.354;20.886;2023-10-09T01:46:38;2.50;99.90
18207;DHT22;9229;52.354;20.886;2023-10-09T01:51:45;2.50;99.90
18207;DHT22;9229;52.354;20.886;2023-10-09T01:56:51;2.50;99.90
18207;DHT22;9229;52.354;20.886;2023-10-09T02:01:54;2.50;99.90
18207;DHT22;9229;52.354;20.886;2023-10-09T02:06:59;2.50;99.90
18207;DHT22;9229;52.354;20.886;2023-10-09T02:12:08;2.50;99.90
18207;DHT22;9229;52.354;20.886;2023-10-09T02:17:10;2.50;99.90
18207;DHT22;9229;52.354;20.886;2023-10-09T02:27:28;2.50;99.90
18207;DHT22;9229;52.354;20.886;2023-10-09T02:37:54;2.50;99.90
18207;DHT22;9229;52.354;20.886;2023-10-09T02:43:02;2.50;99.90
18207;DHT22;9229;52.354;20.886;2023-10-09T02:48:08;2.60;99.90
18207;DHT22;9229;52.354;20.886;2023-10-09T02:58:22;2.60;99.90
18207;DHT22;9229;52.354;20.886;2023-10-09T03:13:32;2.70;99.90
18207;DHT22;9229;52.354;20.886;2023-10-09T03:28:47;2.30;99.90
18207;DHT22;9229;52.354;20.886;2023-10-09T03:38:55;2.70;99.90
18207;DHT22;9229;52.354;20.886;2023-10-09T03:44:00;2.60;99.90
18207;DHT22;9229;52.354;20.886;2023-10-09T03:49:02;2.60;99.90
18207;DHT22;9229;52.354;20.886;2023-10-09T03:54:11;2.70;99.90
18207;DHT22;9229;52.354;20.886;2023-10-09T03:59:21;2.70;99.90
18207;DHT22;9229;52.354;20.886;2023-10-09T04:04:27;2.70;99.90
18207;DHT22;9229;52.354;20.886;2023-10-09T04:09:30;2.80;99.90
18207;DHT22;9229;52.354;20.886;2023-10-09T04:14:42;2.80;99.90
18207;DHT22;9229;52.354;20.886;2023-10-09T04:19:57;2.80;99.90
18207;DHT22;9229;52.354;20.886;2023-10-09T04:25:17;2.80;99.90
18207;DHT22;9229;52.354;20.886;2023-10-09T04:30:28;2.90;99.90
18207;DHT22;9229;52.354;20.886;2023-10-09T04:35:30;2.80;99.90
18207;DHT22;9229;52.354;20.886;2023-10-09T04:40:33;2.90;99.90
18207;DHT22;9229;52.354;20.886;2023-10-09T04:45:58;2.90;99.90
18207;DHT22;9229;52.354;20.886;2023-10-09T04:51:17;2.90;99.90
18207;DHT22;9229;52.354;20.886;2023-10-09T05:01:53;3.00;99.90
18207;DHT22;9229;52.354;20.886;2023-10-09T05:07:08;3.00;99.90
18207;DHT22;9229;52.354;20.886;2023-10-09T05:17:36;3.30;99.90
18207;DHT22;9229;52.354;20.886;2023-10-09T05:22:39;3.20;99.90
18207;DHT22;9229;52.354;20.886;2023-10-09T05:33:23;3.50;99.90
18207;DHT22;9229;52.354;20.886;2023-10-09T05:38:35;3.60;99.90
18207;DHT22;9229;52.354;20.886;2023-10-09T05:43:46;3.60;99.90
18207;DHT22;9229;52.354;20.886;2023-10-09T05:49:11;3.70;99.90
18207;DHT22;9229;52.354;20.886;2023-10-09T06:05:06;4.30;99.90
18207;DHT22;9229;52.354;20.886;2023-10-09T06:10:30;4.30;99.90
18207;DHT22;9229;52.354;20.886;2023-10-09T06:15:41;4.30;99.90
18207;DHT22;9229;52.354;20.886;2023-10-09T06:21:12;4.30;99.90
18207;DHT22;9229;52.354;20.886;2023-10-09T06:26:47;4.40;99.90
18207;DHT22;9229;52.354;20.886;2023-10-09T06:32:09;4.60;99.90
18207;DHT22;9229;52.354;20.886;2023-10-09T06:37:39;4.80;99.90
18207;DHT22;9229;52.354;20.886;2023-10-09T06:43:04;5.00;99.90
18207;DHT22;9229;52.354;20.886;2023-10-09T06:48:11;5.20;99.90
18207;DHT22;9229;52.354;20.886;2023-10-09T06:53:28;5.50;99.90
18207;DHT22;9229;52.354;20.886;2023-10-09T06:58:53;5.70;99.90
18207;DHT22;9229;52.354;20.886;2023-10-09T07:03:59;5.90;99.90
18207;DHT22;9229;52.354;20.886;2023-10-09T07:09:13;6.10;99.90
18207;DHT22;9229;52.354;20.886;2023-10-09T07:14:20;6.40;99.90
18207;DHT22;9229;52.354;20.886;2023-10-09T07:19:56;6.90;99.90
18207;DHT22;9229;52.354;20.886;2023-10-09T07:25:11;7.10;99.90
18207;DHT22;9229;52.354;20.886;2023-10-09T07:30:29;7.50;99.90
18207;DHT22;9229;52.354;20.886;2023-10-09T07:35:44;7.70;99.90
18207;DHT22;9229;52.354;20.886;2023-10-09T07:40:59;7.90;99.90
18207;DHT22;9229;52.354;20.886;2023-10-09T07:46:21;8.10;99.90
18207;DHT22;9229;52.354;20.886;2023-10-09T07:51:33;8.30;99.90
18207;DHT22;9229;52.354;20.886;2023-10-09T07:56:38;8.60;99.90
18207;DHT22;9229;52.354;20.886;2023-10-09T08:01:45;9.10;99.90
18207;DHT22;9229;52.354;20.886;2023-10-09T08:06:55;9.40;99.90
18207;DHT22;9229;52.354;20.886;2023-10-09T08:12:06;9.60;99.90
18207;DHT22;9229;52.354;20.886;2023-10-09T08:17:38;9.50;99.90
18207;DHT22;9229;52.354;20.886;2023-10-09T08:22:40;9.70;99.90
18207;DHT22;9229;52.354;20.886;2023-10-09T08:27:58;10.10;99.40
18207;DHT22;9229;52.354;20.886;2023-10-09T08:33:21;10.70;97.90
18207;DHT22;9229;52.354;20.886;2023-10-09T08:38:43;11.50;95.20
18207;DHT22;9229;52.354;20.886;2023-10-09T08:43:51;11.80;92.80
18207;DHT22;9229;52.354;20.886;2023-10-09T08:48:58;11.40;91.90
18207;DHT22;9229;52.354;20.886;2023-10-09T08:54:01;11.70;90.70
18207;DHT22;9229;52.354;20.886;2023-10-09T08:59:04;11.80;90.00
18207;DHT22;9229;52.354;20.886;2023-10-09T09:04:07;12.10;88.10
18207;DHT22;9229;52.354;20.886;2023-10-09T09:09:27;12.60;85.90
18207;DHT22;9229;52.354;20.886;2023-10-09T09:14:41;12.90;83.00
18207;DHT22;9229;52.354;20.886;2023-10-09T09:19:47;12.90;81.40
18207;DHT22;9229;52.354;20.886;2023-10-09T09:24:57;12.90;80.10
18207;DHT22;9229;52.354;20.886;2023-10-09T09:30:22;12.60;78.80
18207;DHT22;9229;52.354;20.886;2023-10-09T09:35:25;12.80;79.00
18207;DHT22;9229;52.354;20.886;2023-10-09T09:40:31;13.60;76.80
18207;DHT22;9229;52.354;20.886;2023-10-09T09:45:45;13.90;72.80
18207;DHT22;9229;52.354;20.886;2023-10-09T09:51:15;14.40;72.90
18207;DHT22;9229;52.354;20.886;2023-10-09T09:56:20;13.40;72.10
18207;DHT22;9229;52.354;20.886;2023-10-09T10:01:30;13.30;72.40
18207;DHT22;9229;52.354;20.886;2023-10-09T10:06:43;13.50;72.50
18207;DHT22;9229;52.354;20.886;2023-10-09T10:11:48;13.80;72.80
18207;DHT22;9229;52.354;20.886;2023-10-09T10:17:04;13.70;71.60
18207;DHT22;9229;52.354;20.886;2023-10-09T10:22:27;13.80;70.50
18207;DHT22;9229;52.354;20.886;2023-10-09T10:27:32;14.00;68.30
18207;DHT22;9229;52.354;20.886;2023-10-09T10:32:55;13.90;68.40
18207;DHT22;9229;52.354;20.886;2023-10-09T10:37:59;13.90;68.90
18207;DHT22;9229;52.354;20.886;2023-10-09T10:43:15;14.00;69.00
18207;DHT22;9229;52.354;20.886;2023-10-09T10:48:50;14.20;68.50
18207;DHT22;9229;52.354;20.886;2023-10-09T10:54:01;14.10;67.60
18207;DHT22;9229;52.354;20.886;2023-10-09T10:59:36;14.00;68.20
18207;DHT22;9229;52.354;20.886;2023-10-09T11:04:49;13.90;68.90
18207;DHT22;9229;52.354;20.886;2023-10-09T11:10:15;13.70;69.40
18207;DHT22;9229;52.354;20.886;2023-10-09T11:15:33;13.40;69.50
18207;DHT22;9229;52.354;20.886;2023-10-09T11:20:58;13.50;70.20
18207;DHT22;9229;52.354;20.886;2023-10-09T11:26:17;13.20;69.00
18207;DHT22;9229;52.354;20.886;2023-10-09T11:31:33;13.10;69.00
18207;DHT22;9229;52.354;20.886;2023-10-09T11:37:12;13.20;68.90
18207;DHT22;9229;52.354;20.886;2023-10-09T11:42:42;13.60;70.40
18207;DHT22;9229;52.354;20.886;2023-10-09T11:47:55;13.70;70.30
18207;DHT22;9229;52.354;20.886;2023-10-09T11:53:13;14.10;70.80
18207;DHT22;9229;52.354;20.886;2023-10-09T11:58:34;14.00;69.40
18207;DHT22;9229;52.354;20.886;2023-10-09T12:03:42;13.90;70.90
18207;DHT22;9229;52.354;20.886;2023-10-09T12:08:54;13.80;71.80
18207;DHT22;9229;52.354;20.886;2023-10-09T12:14:06;13.60;72.00
18207;DHT22;9229;52.354;20.886;2023-10-09T12:19:12;13.50;72.60
18207;DHT22;9229;52.354;20.886;2023-10-09T12:24:18;13.90;75.50
18207;DHT22;9229;52.354;20.886;2023-10-09T12:29:28;13.90;73.60
18207;DHT22;9229;52.354;20.886;2023-10-09T12:34:34;13.80;73.80
18207;DHT22;9229;52.354;20.886;2023-10-09T12:39:48;13.60;74.90
18207;DHT22;9229;52.354;20.886;2023-10-09T12:44:59;13.40;75.40
18207;DHT22;9229;52.354;20.886;2023-10-09T12:50:09;13.20;74.30
18207;DHT22;9229;52.354;20.886;2023-10-09T12:56:22;13.20;75.20
18207;DHT22;9229;52.354;20.886;2023-10-09T14:00:51;11.20;89.30
18207;DHT22;9229;52.354;20.886;2023-10-09T14:18:41;10.70;91.50
18207;DHT22;9229;52.354;20.886;2023-10-09T14:29:46;10.60;92.20
18207;DHT22;9229;52.354;20.886;2023-10-09T14:41:02;10.40;92.70
18207;DHT22;9229;52.354;20.886;2023-10-09T14:46:27;10.30;92.90
18207;DHT22;9229;52.354;20.886;2023-10-09T14:52:12;10.30;93.50
18207;DHT22;9229;52.354;20.886;2023-10-09T14:57:58;10.20;93.50
18207;DHT22;9229;52.354;20.886;2023-10-09T15:04:10;10.20;94.00
18207;DHT22;9229;52.354;20.886;2023-10-09T15:09:28;10.00;94.40
18207;DHT22;9229;52.354;20.886;2023-10-09T15:15:07;9.90;95.50
18207;DHT22;9229;52.354;20.886;2023-10-09T15:20:23;9.90;96.10
18207;DHT22;9229;52.354;20.886;2023-10-09T15:25:43;9.70;96.40
18207;DHT22;9229;52.354;20.886;2023-10-09T15:30:55;9.70;96.80
18207;DHT22;9229;52.354;20.886;2023-10-09T15:35:59;9.60;97.40
18207;DHT22;9229;52.354;20.886;2023-10-09T15:41:02;9.70;98.20
18207;DHT22;9229;52.354;20.886;2023-10-09T15:46:11;9.30;98.60
18207;DHT22;9229;52.354;20.886;2023-10-09T15:51:25;9.20;99.40
18207;DHT22;9229;52.354;20.886;2023-10-09T15:57:03;9.20;99.90
18207;DHT22;9229;52.354;20.886;2023-10-09T16:15:40;8.70;99.90
18207;DHT22;9229;52.354;20.886;2023-10-09T16:21:50;8.60;99.90
18207;DHT22;9229;52.354;20.886;2023-10-09T16:27:41;8.40;99.90
18207;DHT22;9229;52.354;20.886;2023-10-09T16:52:47;7.80;99.90
18207;DHT22;9229;52.354;20.886;2023-10-09T16:58:15;7.60;99.90
18207;DHT22;9229;52.354;20.886;2023-10-09T17:04:07;7.50;99.90
18207;DHT22;9229;52.354;20.886;2023-10-09T17:09:34;7.50;99.90
18207;DHT22;9229;52.354;20.886;2023-10-09T17:14:51;7.20;99.90
18207;DHT22;9229;52.354;20.886;2023-10-09T17:19:57;6.90;99.90
18207;DHT22;9229;52.354;20.886;2023-10-09T17:25:07;6.90;99.90
18207;DHT22;9229;52.354;20.886;2023-10-09T17:30:19;6.80;99.90
18207;DHT22;9229;52.354;20.886;2023-10-09T17:35:51;6.60;99.90
18207;DHT22;9229;52.354;20.886;2023-10-09T17:41:15;6.50;99.90
18207;DHT22;9229;52.354;20.886;2023-10-09T17:46:53;6.30;99.90
18207;DHT22;9229;52.354;20.886;2023-10-09T17:52:33;6.30;99.90
18207;DHT22;9229;52.354;20.886;2023-10-09T17:57:49;6.40;99.90
18207;DHT22;9229;52.354;20.886;2023-10-09T18:02:54;6.40;99.90
18207;DHT22;9229;52.354;20.886;2023-10-09T18:07:57;6.20;99.90
18207;DHT22;9229;52.354;20.886;2023-10-09T18:13:03;6.00;99.90
18207;DHT22;9229;52.354;20.886;2023-10-09T18:18:09;6.00;99.90
18207;DHT22;9229;52.354;20.886;2023-10-09T18:23:16;6.00;99.90
18207;DHT22;9229;52.354;20.886;2023-10-09T18:28:25;5.90;99.90
18207;DHT22;9229;52.354;20.886;2023-10-09T18:33:32;5.80;99.90
18207;DHT22;9229;52.354;20.886;2023-10-09T18:38:37;5.70;99.90
18207;DHT22;9229;52.354;20.886;2023-10-09T18:43:40;5.70;99.90
18207;DHT22;9229;52.354;20.886;2023-10-09T18:48:42;5.60;99.90
18207;DHT22;9229;52.354;20.886;2023-10-09T18:53:49;5.60;99.90
18207;DHT22;9229;52.354;20.886;2023-10-09T18:58:57;5.50;99.90
18207;DHT22;9229;52.354;20.886;2023-10-09T19:04:05;5.40;99.90
18207;DHT22;9229;52.354;20.886;2023-10-09T19:09:13;5.40;99.90
18207;DHT22;9229;52.354;20.886;2023-10-09T19:14:25;5.40;99.90
18207;DHT22;9229;52.354;20.886;2023-10-09T19:19:38;5.50;99.90
18207;DHT22;9229;52.354;20.886;2023-10-09T19:24:51;5.30;99.90
18207;DHT22;9229;52.354;20.886;2023-10-09T19:29:55;5.20;99.90
18207;DHT22;9229;52.354;20.886;2023-10-09T19:34:57;5.10;99.90
18207;DHT22;9229;52.354;20.886;2023-10-09T19:40:01;5.00;99.90
18207;DHT22;9229;52.354;20.886;2023-10-09T19:45:35;4.90;99.90
18207;DHT22;9229;52.354;20.886;2023-10-09T19:50:40;4.90;99.90
18207;DHT22;9229;52.354;20.886;2023-10-09T19:55:44;4.80;99.90
18207;DHT22;9229;52.354;20.886;2023-10-09T20:00:50;4.80;99.90
18207;DHT22;9229;52.354;20.886;2023-10-09T20:05:55;4.70;99.90
18207;DHT22;9229;52.354;20.886;2023-10-09T20:11:02;4.60;99.90
18207;DHT22;9229;52.354;20.886;2023-10-09T20:16:08;4.50;99.90
18207;DHT22;9229;52.354;20.886;2023-10-09T20:21:14;4.50;99.90
18207;DHT22;9229;52.354;20.886;2023-10-09T20:26:20;4.50;99.90
18207;DHT22;9229;52.354;20.886;2023-10-09T20:31:24;4.50;99.90
18207;DHT22;9229;52.354;20.886;2023-10-09T20:36:27;4.60;99.90
18207;DHT22;9229;52.354;20.886;2023-10-09T20:41:40;4.70;99.90
18207;DHT22;9229;52.354;20.886;2023-10-09T20:46:46;4.70;99.90
18207;DHT22;9229;52.354;20.886;2023-10-09T20:51:48;4.60;99.90
18207;DHT22;9229;52.354;20.886;2023-10-09T20:56:51;4.60;99.90
18207;DHT22;9229;52.354;20.886;2023-10-09T21:01:54;4.50;99.90
18207;DHT22;9229;52.354;20.886;2023-10-09T21:06:56;4.50;99.90
18207;DHT22;9229;52.354;20.886;2023-10-09T21:11:59;4.50;99.90
18207;DHT22;9229;52.354;20.886;2023-10-09T21:17:02;4.50;99.90
18207;DHT22;9229;52.354;20.886;2023-10-09T21:22:07;4.50;99.90
18207;DHT22;9229;52.354;20.886;2023-10-09T21:27:09;4.50;99.90
18207;DHT22;9229;52.354;20.886;2023-10-09T21:32:12;4.50;99.90
18207;DHT22;9229;52.354;20.886;2023-10-09T21:37:14;4.50;99.90
18207;DHT22;9229;52.354;20.886;2023-10-09T21:42:20;4.50;99.90
18207;DHT22;9229;52.354;20.886;2023-10-09T21:47:31;4.60;99.90
18207;DHT22;9229;52.354;20.886;2023-10-09T21:52:34;4.60;99.90
18207;DHT22;9229;52.354;20.886;2023-10-09T21:57:37;4.60;99.90
18207;DHT22;9229;52.354;20.886;2023-10-09T22:02:42;4.60;99.90
18207;DHT22;9229;52.354;20.886;2023-10-09T22:07:47;4.60;99.90
18207;DHT22;9229;52.354;20.886;2023-10-09T22:12:49;4.60;99.90
18207;DHT22;9229;52.354;20.886;2023-10-09T22:17:53;4.50;99.90
18207;DHT22;9229;52.354;20.886;2023-10-09T22:22:55;4.50;99.90
18207;DHT22;9229;52.354;20.886;2023-10-09T22:27:58;4.40;99.90
18207;DHT22;9229;52.354;20.886;2023-10-09T22:33:06;4.40;99.90
18207;DHT22;9229;52.354;20.886;2023-10-09T22:38:14;4.30;99.90
18207;DHT22;9229;52.354;20.886;2023-10-09T22:43:17;4.40;99.90
18207;DHT22;9229;52.354;20.886;2023-10-09T22:48:33;4.40;99.90
18207;DHT22;9229;52.354;20.886;2023-10-09T22:53:42;4.50;99.90
18207;DHT22;9229;52.354;20.886;2023-10-09T22:58:47;4.40;99.90
18207;DHT22;9229;52.354;20.886;2023-10-09T23:03:59;4.30;99.90
18207;DHT22;9229;52.354;20.886;2023-10-09T23:09:17;4.30;99.90
18207;DHT22;9229;52.354;20.886;2023-10-09T23:14:32;4.30;99.90
18207;DHT22;9229;52.354;20.886;2023-10-09T23:19:45;4.30;99.90
18207;DHT22;9229;52.354;20.886;2023-10-09T23:24:55;4.30;99.90
18207;DHT22;9229;52.354;20.886;2023-10-09T23:30:12;4.40;99.90
18207;DHT22;9229;52.354;20.886;2023-10-09T23:35:26;4.40;99.90
18207;DHT22;9229;52.354;20.886;2023-10-09T23:40:44;4.50;99.90
18207;DHT22;9229;52.354;20.886;2023-10-09T23:45:48;4.50;99.90
18207;DHT22;9229;52.354;20.886;2023-10-09T23:51:01;4.60;99.90
18207;DHT22;9229;52.354;20.886;2023-10-09T23:56:04;4.50;99.90
